sensor_id;sensor_type;location;lat;lon;timestamp;pressure;altitude;pressure_sealevel;temperature
20092;BMP180;10205;49.678;6.560;2022-08-20T00:01:08;99898.00;;;28.00
20092;BMP180;10205;49.678;6.560;2022-08-20T00:03:39;99916.00;;;28.00
20092;BMP180;10205;49.678;6.560;2022-08-20T00:06:11;99915.00;;;27.90
20092;BMP180;10205;49.678;6.560;2022-08-20T00:08:41;99911.00;;;27.90
20092;BMP180;10205;49.678;6.560;2022-08-20T00:11:13;99909.00;;;27.90
20092;BMP180;10205;49.678;6.560;2022-08-20T00:13:45;99910.00;;;27.90
20092;BMP180;10205;49.678;6.560;2022-08-20T00:16:15;99908.00;;;27.80
20092;BMP180;10205;49.678;6.560;2022-08-20T00:18:43;99912.00;;;27.80
20092;BMP180;10205;49.678;6.560;2022-08-20T00:21:18;99902.00;;;27.80
20092;BMP180;10205;49.678;6.560;2022-08-20T00:23:48;99909.00;;;27.80
20092;BMP180;10205;49.678;6.560;2022-08-20T00:26:20;99913.00;;;27.80
20092;BMP180;10205;49.678;6.560;2022-08-20T00:28:50;99918.00;;;27.70
20092;BMP180;10205;49.678;6.560;2022-08-20T00:31:22;99918.00;;;27.70
20092;BMP180;10205;49.678;6.560;2022-08-20T00:33:50;99921.00;;;27.70
20092;BMP180;10205;49.678;6.560;2022-08-20T00:36:18;99927.00;;;27.60
20092;BMP180;10205;49.678;6.560;2022-08-20T00:38:46;99927.00;;;27.60
20092;BMP180;10205;49.678;6.560;2022-08-20T00:41:22;99922.00;;;27.60
20092;BMP180;10205;49.678;6.560;2022-08-20T00:44:04;99927.00;;;27.60
20092;BMP180;10205;49.678;6.560;2022-08-20T00:46:34;99924.00;;;27.50
20092;BMP180;10205;49.678;6.560;2022-08-20T00:49:02;99921.00;;;27.50
20092;BMP180;10205;49.678;6.560;2022-08-20T00:51:38;99927.00;;;27.50
20092;BMP180;10205;49.678;6.560;2022-08-20T00:54:13;99925.00;;;27.50
20092;BMP180;10205;49.678;6.560;2022-08-20T00:56:47;99926.00;;;27.50
20092;BMP180;10205;49.678;6.560;2022-08-20T00:59:22;99941.00;;;27.40
20092;BMP180;10205;49.678;6.560;2022-08-20T01:01:50;99937.00;;;27.40
20092;BMP180;10205;49.678;6.560;2022-08-20T01:04:18;99932.00;;;27.40
20092;BMP180;10205;49.678;6.560;2022-08-20T01:06:45;99932.00;;;27.40
20092;BMP180;10205;49.678;6.560;2022-08-20T01:09:13;99917.00;;;27.30
20092;BMP180;10205;49.678;6.560;2022-08-20T01:11:40;99920.00;;;27.30
20092;BMP180;10205;49.678;6.560;2022-08-20T01:14:15;99924.00;;;27.30
20092;BMP180;10205;49.678;6.560;2022-08-20T01:16:59;99924.00;;;27.30
20092;BMP180;10205;49.678;6.560;2022-08-20T01:19:34;99926.00;;;27.20
20092;BMP180;10205;49.678;6.560;2022-08-20T01:22:04;99926.00;;;27.20
20092;BMP180;10205;49.678;6.560;2022-08-20T01:25:09;99933.00;;;27.20
20092;BMP180;10205;49.678;6.560;2022-08-20T01:27:40;99939.00;;;27.10
20092;BMP180;10205;49.678;6.560;2022-08-20T01:30:09;99926.00;;;27.10
20092;BMP180;10205;49.678;6.560;2022-08-20T01:32:36;99929.00;;;27.10
20092;BMP180;10205;49.678;6.560;2022-08-20T01:35:04;99935.00;;;27.10
20092;BMP180;10205;49.678;6.560;2022-08-20T01:37:31;99930.00;;;27.00
20092;BMP180;10205;49.678;6.560;2022-08-20T01:39:59;99932.00;;;27.00
20092;BMP180;10205;49.678;6.560;2022-08-20T01:42:35;99929.00;;;27.00
20092;BMP180;10205;49.678;6.560;2022-08-20T01:45:06;99936.00;;;27.00
20092;BMP180;10205;49.678;6.560;2022-08-20T01:47:33;99942.00;;;26.90
20092;BMP180;10205;49.678;6.560;2022-08-20T01:50:08;99941.00;;;26.90
20092;BMP180;10205;49.678;6.560;2022-08-20T01:52:47;99947.00;;;26.90
20092;BMP180;10205;49.678;6.560;2022-08-20T01:55:18;99939.00;;;26.90
20092;BMP180;10205;49.678;6.560;2022-08-20T01:57:46;99950.00;;;26.80
20092;BMP180;10205;49.678;6.560;2022-08-20T02:00:17;99944.00;;;26.80
20092;BMP180;10205;49.678;6.560;2022-08-20T02:02:44;99942.00;;;26.80
20092;BMP180;10205;49.678;6.560;2022-08-20T02:05:12;99927.00;;;26.70
20092;BMP180;10205;49.678;6.560;2022-08-20T02:07:39;99942.00;;;26.70
20092;BMP180;10205;49.678;6.560;2022-08-20T02:10:10;99943.00;;;26.70
20092;BMP180;10205;49.678;6.560;2022-08-20T02:12:38;99947.00;;;26.70
20092;BMP180;10205;49.678;6.560;2022-08-20T02:15:08;99937.00;;;26.60
20092;BMP180;10205;49.678;6.560;2022-08-20T02:17:38;99939.00;;;26.60
20092;BMP180;10205;49.678;6.560;2022-08-20T02:20:11;99936.00;;;26.60
20092;BMP180;10205;49.678;6.560;2022-08-20T02:22:43;99932.00;;;26.50
20092;BMP180;10205;49.678;6.560;2022-08-20T02:25:14;99935.00;;;26.50
20092;BMP180;10205;49.678;6.560;2022-08-20T02:27:44;99937.00;;;26.50
20092;BMP180;10205;49.678;6.560;2022-08-20T02:30:18;99943.00;;;26.40
20092;BMP180;10205;49.678;6.560;2022-08-20T02:32:47;99944.00;;;26.40
20092;BMP180;10205;49.678;6.560;2022-08-20T02:35:15;99942.00;;;26.40
20092;BMP180;10205;49.678;6.560;2022-08-20T02:37:47;99950.00;;;26.40
20092;BMP180;10205;49.678;6.560;2022-08-20T02:40:19;99950.00;;;26.30
20092;BMP180;10205;49.678;6.560;2022-08-20T02:42:47;99962.00;;;26.30
20092;BMP180;10205;49.678;6.560;2022-08-20T02:45:16;99944.00;;;26.30
20092;BMP180;10205;49.678;6.560;2022-08-20T02:47:45;99953.00;;;26.20
20092;BMP180;10205;49.678;6.560;2022-08-20T02:50:16;99944.00;;;26.20
20092;BMP180;10205;49.678;6.560;2022-08-20T02:52:44;99947.00;;;26.20
20092;BMP180;10205;49.678;6.560;2022-08-20T02:55:12;99935.00;;;26.10
20092;BMP180;10205;49.678;6.560;2022-08-20T02:57:40;99947.00;;;26.10
20092;BMP180;10205;49.678;6.560;2022-08-20T03:00:12;99946.00;;;26.10
20092;BMP180;10205;49.678;6.560;2022-08-20T03:02:40;99941.00;;;26.10
20092;BMP180;10205;49.678;6.560;2022-08-20T03:05:09;99944.00;;;26.10
20092;BMP180;10205;49.678;6.560;2022-08-20T03:07:41;99941.00;;;26.00
20092;BMP180;10205;49.678;6.560;2022-08-20T03:10:10;99937.00;;;26.00
20092;BMP180;10205;49.678;6.560;2022-08-20T03:12:37;99937.00;;;26.00
20092;BMP180;10205;49.678;6.560;2022-08-20T03:15:08;99948.00;;;26.00
20092;BMP180;10205;49.678;6.560;2022-08-20T03:17:36;99948.00;;;26.00
20092;BMP180;10205;49.678;6.560;2022-08-20T03:20:05;99944.00;;;26.00
20092;BMP180;10205;49.678;6.560;2022-08-20T03:22:35;99942.00;;;26.00
20092;BMP180;10205;49.678;6.560;2022-08-20T03:25:04;99955.00;;;25.90
20092;BMP180;10205;49.678;6.560;2022-08-20T03:27:31;99958.00;;;25.90
20092;BMP180;10205;49.678;6.560;2022-08-20T03:29:59;99960.00;;;25.90
20092;BMP180;10205;49.678;6.560;2022-08-20T03:32:26;99960.00;;;25.90
20092;BMP180;10205;49.678;6.560;2022-08-20T03:34:53;99949.00;;;25.90
20092;BMP180;10205;49.678;6.560;2022-08-20T03:37:20;99953.00;;;25.80
20092;BMP180;10205;49.678;6.560;2022-08-20T03:39:48;99953.00;;;25.90
20092;BMP180;10205;49.678;6.560;2022-08-20T03:42:16;99952.00;;;25.80
20092;BMP180;10205;49.678;6.560;2022-08-20T03:44:43;99946.00;;;25.80
20092;BMP180;10205;49.678;6.560;2022-08-20T03:47:11;99952.00;;;25.80
20092;BMP180;10205;49.678;6.560;2022-08-20T03:49:38;99951.00;;;25.80
20092;BMP180;10205;49.678;6.560;2022-08-20T03:52:05;99953.00;;;25.80
20092;BMP180;10205;49.678;6.560;2022-08-20T03:54:33;99952.00;;;25.80
20092;BMP180;10205;49.678;6.560;2022-08-20T03:57:01;99955.00;;;25.80
20092;BMP180;10205;49.678;6.560;2022-08-20T03:59:29;99951.00;;;25.70
20092;BMP180;10205;49.678;6.560;2022-08-20T04:01:58;99956.00;;;25.70
20092;BMP180;10205;49.678;6.560;2022-08-20T04:04:25;99954.00;;;25.70
20092;BMP180;10205;49.678;6.560;2022-08-20T04:06:52;99955.00;;;25.70
20092;BMP180;10205;49.678;6.560;2022-08-20T04:09:20;99956.00;;;25.70
20092;BMP180;10205;49.678;6.560;2022-08-20T04:11:47;99960.00;;;25.70
20092;BMP180;10205;49.678;6.560;2022-08-20T04:14:16;99950.00;;;25.60
20092;BMP180;10205;49.678;6.560;2022-08-20T04:16:43;99964.00;;;25.60
20092;BMP180;10205;49.678;6.560;2022-08-20T04:19:10;99970.00;;;25.60
20092;BMP180;10205;49.678;6.560;2022-08-20T04:21:37;99968.00;;;25.60
20092;BMP180;10205;49.678;6.560;2022-08-20T04:24:05;99970.00;;;25.60
20092;BMP180;10205;49.678;6.560;2022-08-20T04:26:32;99968.00;;;25.60
20092;BMP180;10205;49.678;6.560;2022-08-20T04:29:02;99968.00;;;25.50
20092;BMP180;10205;49.678;6.560;2022-08-20T04:31:30;99968.00;;;25.50
20092;BMP180;10205;49.678;6.560;2022-08-20T04:34:04;99969.00;;;25.50
20092;BMP180;10205;49.678;6.560;2022-08-20T04:36:32;99961.00;;;25.50
20092;BMP180;10205;49.678;6.560;2022-08-20T04:39:00;99969.00;;;25.50
20092;BMP180;10205;49.678;6.560;2022-08-20T04:41:27;99971.00;;;25.50
20092;BMP180;10205;49.678;6.560;2022-08-20T04:43:55;99971.00;;;25.40
20092;BMP180;10205;49.678;6.560;2022-08-20T04:46:25;99973.00;;;25.40
20092;BMP180;10205;49.678;6.560;2022-08-20T04:48:55;99971.00;;;25.40
20092;BMP180;10205;49.678;6.560;2022-08-20T04:51:23;99969.00;;;25.40
20092;BMP180;10205;49.678;6.560;2022-08-20T04:53:52;99971.00;;;25.40
20092;BMP180;10205;49.678;6.560;2022-08-20T04:56:23;99965.00;;;25.30
20092;BMP180;10205;49.678;6.560;2022-08-20T04:58:52;99960.00;;;25.30
20092;BMP180;10205;49.678;6.560;2022-08-20T05:01:20;99968.00;;;25.30
20092;BMP180;10205;49.678;6.560;2022-08-20T05:03:49;99971.00;;;25.30
20092;BMP180;10205;49.678;6.560;2022-08-20T05:06:24;99975.00;;;25.30
20092;BMP180;10205;49.678;6.560;2022-08-20T05:08:51;99963.00;;;25.30
20092;BMP180;10205;49.678;6.560;2022-08-20T05:11:19;99964.00;;;25.20
20092;BMP180;10205;49.678;6.560;2022-08-20T05:13:46;99974.00;;;25.20
20092;BMP180;10205;49.678;6.560;2022-08-20T05:16:15;99975.00;;;25.20
20092;BMP180;10205;49.678;6.560;2022-08-20T05:18:42;99971.00;;;25.20
20092;BMP180;10205;49.678;6.560;2022-08-20T05:21:11;99977.00;;;25.20
20092;BMP180;10205;49.678;6.560;2022-08-20T05:23:40;99987.00;;;25.20
20092;BMP180;10205;49.678;6.560;2022-08-20T05:26:08;99984.00;;;25.10
20092;BMP180;10205;49.678;6.560;2022-08-20T05:28:38;99992.00;;;25.10
20092;BMP180;10205;49.678;6.560;2022-08-20T05:31:06;99993.00;;;25.10
20092;BMP180;10205;49.678;6.560;2022-08-20T05:33:35;99999.00;;;25.10
20092;BMP180;10205;49.678;6.560;2022-08-20T05:36:04;99991.00;;;25.00
20092;BMP180;10205;49.678;6.560;2022-08-20T05:38:34;99998.00;;;25.00
20092;BMP180;10205;49.678;6.560;2022-08-20T05:41:04;99993.00;;;25.00
20092;BMP180;10205;49.678;6.560;2022-08-20T05:43:32;100003.00;;;25.00
20092;BMP180;10205;49.678;6.560;2022-08-20T05:45:59;100009.00;;;25.00
20092;BMP180;10205;49.678;6.560;2022-08-20T05:48:28;100009.00;;;25.00
20092;BMP180;10205;49.678;6.560;2022-08-20T05:50:55;100007.00;;;25.00
20092;BMP180;10205;49.678;6.560;2022-08-20T05:53:24;100007.00;;;24.90
20092;BMP180;10205;49.678;6.560;2022-08-20T05:55:52;100000.00;;;24.90
20092;BMP180;10205;49.678;6.560;2022-08-20T05:58:23;100006.00;;;24.90
20092;BMP180;10205;49.678;6.560;2022-08-20T06:00:52;100008.00;;;24.90
20092;BMP180;10205;49.678;6.560;2022-08-20T06:03:21;100013.00;;;24.90
20092;BMP180;10205;49.678;6.560;2022-08-20T06:06:06;100024.00;;;24.80
20092;BMP180;10205;49.678;6.560;2022-08-20T06:08:34;100015.00;;;24.80
20092;BMP180;10205;49.678;6.560;2022-08-20T06:11:02;100018.00;;;24.80
20092;BMP180;10205;49.678;6.560;2022-08-20T06:13:30;100011.00;;;24.80
20092;BMP180;10205;49.678;6.560;2022-08-20T06:15:58;100018.00;;;24.80
20092;BMP180;10205;49.678;6.560;2022-08-20T06:18:25;100019.00;;;24.80
20092;BMP180;10205;49.678;6.560;2022-08-20T06:20:52;100021.00;;;24.80
20092;BMP180;10205;49.678;6.560;2022-08-20T06:23:19;100022.00;;;24.80
20092;BMP180;10205;49.678;6.560;2022-08-20T06:25:48;100024.00;;;24.80
20092;BMP180;10205;49.678;6.560;2022-08-20T06:28:15;100024.00;;;24.80
20092;BMP180;10205;49.678;6.560;2022-08-20T06:30:47;100033.00;;;24.70
20092;BMP180;10205;49.678;6.560;2022-08-20T06:33:14;100036.00;;;24.70
20092;BMP180;10205;49.678;6.560;2022-08-20T06:35:41;100042.00;;;24.70
20092;BMP180;10205;49.678;6.560;2022-08-20T06:38:10;100034.00;;;24.70
20092;BMP180;10205;49.678;6.560;2022-08-20T06:40:39;100039.00;;;24.70
20092;BMP180;10205;49.678;6.560;2022-08-20T06:43:09;100042.00;;;24.70
20092;BMP180;10205;49.678;6.560;2022-08-20T06:45:39;100042.00;;;24.60
20092;BMP180;10205;49.678;6.560;2022-08-20T06:48:12;100037.00;;;24.60
20092;BMP180;10205;49.678;6.560;2022-08-20T06:50:44;100036.00;;;24.60
20092;BMP180;10205;49.678;6.560;2022-08-20T06:53:16;100039.00;;;24.60
20092;BMP180;10205;49.678;6.560;2022-08-20T06:55:47;100032.00;;;24.60
20092;BMP180;10205;49.678;6.560;2022-08-20T06:58:16;100046.00;;;24.60
20092;BMP180;10205;49.678;6.560;2022-08-20T07:00:47;100052.00;;;24.60
20092;BMP180;10205;49.678;6.560;2022-08-20T07:03:16;100050.00;;;24.60
20092;BMP180;10205;49.678;6.560;2022-08-20T07:05:44;100055.00;;;24.50
20092;BMP180;10205;49.678;6.560;2022-08-20T07:08:14;100059.00;;;24.50
20092;BMP180;10205;49.678;6.560;2022-08-20T07:10:44;100059.00;;;24.40
20092;BMP180;10205;49.678;6.560;2022-08-20T07:13:12;100067.00;;;24.40
20092;BMP180;10205;49.678;6.560;2022-08-20T07:15:42;100073.00;;;24.40
20092;BMP180;10205;49.678;6.560;2022-08-20T07:18:11;100077.00;;;24.30
20092;BMP180;10205;49.678;6.560;2022-08-20T07:20:40;100090.00;;;24.30
20092;BMP180;10205;49.678;6.560;2022-08-20T07:23:09;100085.00;;;24.20
20092;BMP180;10205;49.678;6.560;2022-08-20T07:25:38;100068.00;;;24.20
20092;BMP180;10205;49.678;6.560;2022-08-20T07:28:12;100079.00;;;24.10
20092;BMP180;10205;49.678;6.560;2022-08-20T07:30:40;100085.00;;;24.10
20092;BMP180;10205;49.678;6.560;2022-08-20T07:33:36;100088.00;;;24.00
20092;BMP180;10205;49.678;6.560;2022-08-20T07:36:07;100076.00;;;24.00
20092;BMP180;10205;49.678;6.560;2022-08-20T07:38:35;100082.00;;;24.10
20092;BMP180;10205;49.678;6.560;2022-08-20T07:41:06;100084.00;;;24.10
20092;BMP180;10205;49.678;6.560;2022-08-20T07:43:35;100086.00;;;24.00
20092;BMP180;10205;49.678;6.560;2022-08-20T07:46:05;100101.00;;;24.10
20092;BMP180;10205;49.678;6.560;2022-08-20T07:48:35;100098.00;;;24.10
20092;BMP180;10205;49.678;6.560;2022-08-20T07:51:08;100100.00;;;24.10
20092;BMP180;10205;49.678;6.560;2022-08-20T07:53:39;100104.00;;;24.10
20092;BMP180;10205;49.678;6.560;2022-08-20T07:56:10;100111.00;;;24.00
20092;BMP180;10205;49.678;6.560;2022-08-20T07:58:41;100108.00;;;24.00
20092;BMP180;10205;49.678;6.560;2022-08-20T08:01:10;100124.00;;;24.00
20092;BMP180;10205;49.678;6.560;2022-08-20T08:03:37;100128.00;;;23.90
20092;BMP180;10205;49.678;6.560;2022-08-20T08:06:06;100127.00;;;23.90
20092;BMP180;10205;49.678;6.560;2022-08-20T08:08:38;100125.00;;;24.00
20092;BMP180;10205;49.678;6.560;2022-08-20T08:11:07;100135.00;;;24.00
20092;BMP180;10205;49.678;6.560;2022-08-20T08:13:39;100137.00;;;24.00
20092;BMP180;10205;49.678;6.560;2022-08-20T08:16:09;100130.00;;;24.00
20092;BMP180;10205;49.678;6.560;2022-08-20T08:18:42;100125.00;;;24.00
20092;BMP180;10205;49.678;6.560;2022-08-20T08:21:12;100135.00;;;24.10
20092;BMP180;10205;49.678;6.560;2022-08-20T08:23:40;100139.00;;;24.20
20092;BMP180;10205;49.678;6.560;2022-08-20T08:26:10;100140.00;;;24.20
20092;BMP180;10205;49.678;6.560;2022-08-20T08:28:38;100139.00;;;24.30
20092;BMP180;10205;49.678;6.560;2022-08-20T08:31:06;100134.00;;;24.30
20092;BMP180;10205;49.678;6.560;2022-08-20T08:33:33;100136.00;;;24.30
20092;BMP180;10205;49.678;6.560;2022-08-20T08:36:03;100139.00;;;24.30
20092;BMP180;10205;49.678;6.560;2022-08-20T08:38:35;100135.00;;;24.40
20092;BMP180;10205;49.678;6.560;2022-08-20T08:41:13;100132.00;;;24.50
20092;BMP180;10205;49.678;6.560;2022-08-20T08:43:43;100119.00;;;24.50
20092;BMP180;10205;49.678;6.560;2022-08-20T08:46:14;100123.00;;;24.70
20092;BMP180;10205;49.678;6.560;2022-08-20T08:48:45;100125.00;;;24.80
20092;BMP180;10205;49.678;6.560;2022-08-20T08:51:26;100125.00;;;24.80
20092;BMP180;10205;49.678;6.560;2022-08-20T08:53:59;100117.00;;;24.90
20092;BMP180;10205;49.678;6.560;2022-08-20T08:56:29;100119.00;;;25.00
20092;BMP180;10205;49.678;6.560;2022-08-20T08:59:00;100122.00;;;25.10
20092;BMP180;10205;49.678;6.560;2022-08-20T09:01:32;100122.00;;;25.20
20092;BMP180;10205;49.678;6.560;2022-08-20T09:04:02;100119.00;;;25.30
20092;BMP180;10205;49.678;6.560;2022-08-20T09:06:31;100133.00;;;25.30
20092;BMP180;10205;49.678;6.560;2022-08-20T09:09:03;100137.00;;;25.40
20092;BMP180;10205;49.678;6.560;2022-08-20T09:11:44;100135.00;;;25.40
20092;BMP180;10205;49.678;6.560;2022-08-20T09:14:11;100125.00;;;25.40
20092;BMP180;10205;49.678;6.560;2022-08-20T09:16:39;100121.00;;;25.50
20092;BMP180;10205;49.678;6.560;2022-08-20T09:19:06;100132.00;;;25.60
20092;BMP180;10205;49.678;6.560;2022-08-20T09:21:33;100134.00;;;25.60
20092;BMP180;10205;49.678;6.560;2022-08-20T09:24:02;100126.00;;;25.70
20092;BMP180;10205;49.678;6.560;2022-08-20T09:26:31;100127.00;;;25.70
20092;BMP180;10205;49.678;6.560;2022-08-20T09:28:58;100134.00;;;25.80
20092;BMP180;10205;49.678;6.560;2022-08-20T09:31:25;100131.00;;;25.80
20092;BMP180;10205;49.678;6.560;2022-08-20T09:33:53;100127.00;;;25.90
20092;BMP180;10205;49.678;6.560;2022-08-20T09:36:20;100129.00;;;25.90
20092;BMP180;10205;49.678;6.560;2022-08-20T09:38:47;100134.00;;;26.00
20092;BMP180;10205;49.678;6.560;2022-08-20T09:41:16;100131.00;;;26.10
20092;BMP180;10205;49.678;6.560;2022-08-20T09:43:44;100130.00;;;26.20
20092;BMP180;10205;49.678;6.560;2022-08-20T09:46:11;100125.00;;;26.30
20092;BMP180;10205;49.678;6.560;2022-08-20T09:48:38;100125.00;;;26.40
20092;BMP180;10205;49.678;6.560;2022-08-20T09:51:06;100128.00;;;26.40
20092;BMP180;10205;49.678;6.560;2022-08-20T09:53:33;100121.00;;;26.50
20092;BMP180;10205;49.678;6.560;2022-08-20T09:56:02;100127.00;;;26.50
20092;BMP180;10205;49.678;6.560;2022-08-20T09:58:36;100126.00;;;26.50
20092;BMP180;10205;49.678;6.560;2022-08-20T10:01:09;100124.00;;;26.50
20092;BMP180;10205;49.678;6.560;2022-08-20T10:03:38;100114.00;;;26.50
20092;BMP180;10205;49.678;6.560;2022-08-20T10:06:06;100116.00;;;26.60
20092;BMP180;10205;49.678;6.560;2022-08-20T10:08:33;100110.00;;;26.60
20092;BMP180;10205;49.678;6.560;2022-08-20T10:11:00;100113.00;;;26.60
20092;BMP180;10205;49.678;6.560;2022-08-20T10:13:29;100117.00;;;26.60
20092;BMP180;10205;49.678;6.560;2022-08-20T10:15:57;100128.00;;;26.60
20092;BMP180;10205;49.678;6.560;2022-08-20T10:18:25;100119.00;;;26.70
20092;BMP180;10205;49.678;6.560;2022-08-20T10:20:52;100119.00;;;26.70
20092;BMP180;10205;49.678;6.560;2022-08-20T10:23:19;100120.00;;;26.60
20092;BMP180;10205;49.678;6.560;2022-08-20T10:25:46;100118.00;;;26.60
20092;BMP180;10205;49.678;6.560;2022-08-20T10:28:13;100109.00;;;26.60
20092;BMP180;10205;49.678;6.560;2022-08-20T10:30:41;100101.00;;;26.60
20092;BMP180;10205;49.678;6.560;2022-08-20T10:33:11;100102.00;;;26.70
20092;BMP180;10205;49.678;6.560;2022-08-20T10:35:38;100107.00;;;26.60
20092;BMP180;10205;49.678;6.560;2022-08-20T10:38:05;100100.00;;;26.70
20092;BMP180;10205;49.678;6.560;2022-08-20T10:40:32;100104.00;;;26.70
20092;BMP180;10205;49.678;6.560;2022-08-20T10:43:00;100101.00;;;26.70
20092;BMP180;10205;49.678;6.560;2022-08-20T10:45:28;100100.00;;;26.80
20092;BMP180;10205;49.678;6.560;2022-08-20T10:47:58;100093.00;;;26.90
20092;BMP180;10205;49.678;6.560;2022-08-20T10:50:27;100089.00;;;27.00
20092;BMP180;10205;49.678;6.560;2022-08-20T10:52:54;100091.00;;;27.10
20092;BMP180;10205;49.678;6.560;2022-08-20T10:55:21;100092.00;;;27.20
20092;BMP180;10205;49.678;6.560;2022-08-20T10:57:49;100101.00;;;27.30
20092;BMP180;10205;49.678;6.560;2022-08-20T11:00:17;100093.00;;;27.30
20092;BMP180;10205;49.678;6.560;2022-08-20T11:02:45;100098.00;;;27.30
20092;BMP180;10205;49.678;6.560;2022-08-20T11:05:12;100086.00;;;27.40
20092;BMP180;10205;49.678;6.560;2022-08-20T11:07:43;100080.00;;;27.40
20092;BMP180;10205;49.678;6.560;2022-08-20T11:10:11;100075.00;;;27.40
20092;BMP180;10205;49.678;6.560;2022-08-20T11:12:39;100081.00;;;27.60
20092;BMP180;10205;49.678;6.560;2022-08-20T11:15:08;100077.00;;;27.70
20092;BMP180;10205;49.678;6.560;2022-08-20T11:17:39;100086.00;;;27.80
20092;BMP180;10205;49.678;6.560;2022-08-20T11:20:09;100070.00;;;27.90
20092;BMP180;10205;49.678;6.560;2022-08-20T11:22:37;100084.00;;;28.00
20092;BMP180;10205;49.678;6.560;2022-08-20T11:25:07;100075.00;;;28.10
20092;BMP180;10205;49.678;6.560;2022-08-20T11:27:37;100076.00;;;28.10
20092;BMP180;10205;49.678;6.560;2022-08-20T11:30:08;100070.00;;;28.20
20092;BMP180;10205;49.678;6.560;2022-08-20T11:32:36;100076.00;;;28.20
20092;BMP180;10205;49.678;6.560;2022-08-20T11:35:04;100069.00;;;28.20
20092;BMP180;10205;49.678;6.560;2022-08-20T11:37:32;100061.00;;;28.20
20092;BMP180;10205;49.678;6.560;2022-08-20T11:40:00;100064.00;;;28.20
20092;BMP180;10205;49.678;6.560;2022-08-20T11:42:29;100064.00;;;28.30
20092;BMP180;10205;49.678;6.560;2022-08-20T11:44:56;100062.00;;;28.30
20092;BMP180;10205;49.678;6.560;2022-08-20T11:47:26;100062.00;;;28.30
20092;BMP180;10205;49.678;6.560;2022-08-20T11:49:59;100064.00;;;28.30
20092;BMP180;10205;49.678;6.560;2022-08-20T11:52:27;100060.00;;;28.40
20092;BMP180;10205;49.678;6.560;2022-08-20T11:54:55;100062.00;;;28.50
20092;BMP180;10205;49.678;6.560;2022-08-20T11:57:26;100065.00;;;28.50
20092;BMP180;10205;49.678;6.560;2022-08-20T11:59:57;100062.00;;;28.60
20092;BMP180;10205;49.678;6.560;2022-08-20T12:02:26;100060.00;;;28.60
20092;BMP180;10205;49.678;6.560;2022-08-20T12:04:54;100058.00;;;28.70
20092;BMP180;10205;49.678;6.560;2022-08-20T12:07:23;100056.00;;;28.80
20092;BMP180;10205;49.678;6.560;2022-08-20T12:09:51;100055.00;;;28.90
20092;BMP180;10205;49.678;6.560;2022-08-20T12:12:20;100052.00;;;28.90
20092;BMP180;10205;49.678;6.560;2022-08-20T12:14:49;100049.00;;;29.00
20092;BMP180;10205;49.678;6.560;2022-08-20T12:17:20;100053.00;;;29.10
20092;BMP180;10205;49.678;6.560;2022-08-20T12:19:50;100057.00;;;29.20
20092;BMP180;10205;49.678;6.560;2022-08-20T12:22:19;100057.00;;;29.20
20092;BMP180;10205;49.678;6.560;2022-08-20T12:24:47;100044.00;;;29.30
20092;BMP180;10205;49.678;6.560;2022-08-20T12:27:17;100047.00;;;29.40
20092;BMP180;10205;49.678;6.560;2022-08-20T12:29:48;100046.00;;;29.40
20092;BMP180;10205;49.678;6.560;2022-08-20T12:32:20;100037.00;;;29.50
20092;BMP180;10205;49.678;6.560;2022-08-20T12:34:48;100034.00;;;29.50
20092;BMP180;10205;49.678;6.560;2022-08-20T12:37:19;100040.00;;;29.60
20092;BMP180;10205;49.678;6.560;2022-08-20T12:39:50;100032.00;;;29.60
20092;BMP180;10205;49.678;6.560;2022-08-20T12:42:19;100038.00;;;29.60
20092;BMP180;10205;49.678;6.560;2022-08-20T12:44:47;100037.00;;;29.70
20092;BMP180;10205;49.678;6.560;2022-08-20T12:47:18;100033.00;;;29.70
20092;BMP180;10205;49.678;6.560;2022-08-20T12:49:50;100030.00;;;29.80
20092;BMP180;10205;49.678;6.560;2022-08-20T12:52:19;100020.00;;;29.80
20092;BMP180;10205;49.678;6.560;2022-08-20T12:54:47;100016.00;;;29.90
20092;BMP180;10205;49.678;6.560;2022-08-20T12:57:24;100027.00;;;30.00
20092;BMP180;10205;49.678;6.560;2022-08-20T12:59:53;100027.00;;;30.00
20092;BMP180;10205;49.678;6.560;2022-08-20T13:02:20;100029.00;;;30.00
20092;BMP180;10205;49.678;6.560;2022-08-20T13:04:49;100028.00;;;30.10
20092;BMP180;10205;49.678;6.560;2022-08-20T13:07:17;100026.00;;;30.00
20092;BMP180;10205;49.678;6.560;2022-08-20T13:09:44;100020.00;;;30.10
20092;BMP180;10205;49.678;6.560;2022-08-20T13:12:11;100024.00;;;30.10
20092;BMP180;10205;49.678;6.560;2022-08-20T13:14:40;100018.00;;;30.10
20092;BMP180;10205;49.678;6.560;2022-08-20T13:17:10;100020.00;;;30.20
20092;BMP180;10205;49.678;6.560;2022-08-20T13:19:38;100016.00;;;30.20
20092;BMP180;10205;49.678;6.560;2022-08-20T13:22:06;100019.00;;;30.30
20092;BMP180;10205;49.678;6.560;2022-08-20T13:24:33;100002.00;;;30.30
20092;BMP180;10205;49.678;6.560;2022-08-20T13:27:09;100018.00;;;30.40
20092;BMP180;10205;49.678;6.560;2022-08-20T13:29:37;100015.00;;;30.50
20092;BMP180;10205;49.678;6.560;2022-08-20T13:32:05;100014.00;;;30.40
20092;BMP180;10205;49.678;6.560;2022-08-20T13:34:34;100018.00;;;30.40
20092;BMP180;10205;49.678;6.560;2022-08-20T13:37:01;100014.00;;;30.50
20092;BMP180;10205;49.678;6.560;2022-08-20T13:39:30;100006.00;;;30.50
20092;BMP180;10205;49.678;6.560;2022-08-20T13:41:57;100013.00;;;30.50
20092;BMP180;10205;49.678;6.560;2022-08-20T13:44:24;100014.00;;;30.60
20092;BMP180;10205;49.678;6.560;2022-08-20T13:46:51;100000.00;;;30.60
20092;BMP180;10205;49.678;6.560;2022-08-20T13:49:19;100016.00;;;30.60
20092;BMP180;10205;49.678;6.560;2022-08-20T13:51:46;100007.00;;;30.70
20092;BMP180;10205;49.678;6.560;2022-08-20T13:54:14;100006.00;;;30.70
20092;BMP180;10205;49.678;6.560;2022-08-20T13:56:43;100005.00;;;30.70
20092;BMP180;10205;49.678;6.560;2022-08-20T13:59:10;100006.00;;;30.80
20092;BMP180;10205;49.678;6.560;2022-08-20T14:01:38;99993.00;;;30.80
20092;BMP180;10205;49.678;6.560;2022-08-20T14:04:05;99991.00;;;30.80
20092;BMP180;10205;49.678;6.560;2022-08-20T14:06:32;100001.00;;;30.80
20092;BMP180;10205;49.678;6.560;2022-08-20T14:08:59;99999.00;;;30.80
20092;BMP180;10205;49.678;6.560;2022-08-20T14:11:27;100003.00;;;30.80
20092;BMP180;10205;49.678;6.560;2022-08-20T14:13:55;99990.00;;;30.80